Time;durP1;ratioP1;P1;durP2;ratioP2;P2;SDS_P1;SDS_P2;PMS_P1;PMS_P2;Temp;Humidity;BMP_temperature;BMP_pressure;BME280_temperature;BME280_humidity;BME280_pressure;Samples;Min_cycle;Max_cycle;Signal;HPM_P1;HPM_P2
2022/09/06 00:00:57;;;;;;;19.45;14.27;;;20.20;77.70;;;;;;5072027;28;20040;-11
2022/09/06 00:03:26;;;;;;;15.13;12.18;;;20.20;77.70;;;;;;5073098;28;20066;-12
2022/09/06 00:05:53;;;;;;;15.32;12.63;;;20.10;78.20;;;;;;5072756;28;20035;-11
2022/09/06 00:08:19;;;;;;;14.77;12.15;;;20.10;78.20;;;;;;5072460;28;20029;-11
2022/09/06 00:10:45;;;;;;;15.10;11.88;;;20.00;78.10;;;;;;5072380;28;20028;-12
2022/09/06 00:13:12;;;;;;;16.33;11.93;;;20.00;78.00;;;;;;5070927;28;20052;-11
2022/09/06 00:15:38;;;;;;;16.50;13.55;;;20.00;78.00;;;;;;5075634;28;20054;-11
2022/09/06 00:18:06;;;;;;;16.23;12.60;;;20.00;78.40;;;;;;5076273;28;20032;-11
2022/09/06 00:20:33;;;;;;;18.67;14.02;;;19.90;78.30;;;;;;5076231;28;20028;-11
2022/09/06 00:23:02;;;;;;;13.18;10.75;;;19.90;79.50;;;;;;5075626;28;20043;-12
2022/09/06 00:25:29;;;;;;;14.65;12.00;;;19.90;79.10;;;;;;5076106;28;20020;-12
2022/09/06 00:28:03;;;;;;;17.75;13.85;;;19.90;78.60;;;;;;5076014;28;20024;-11
2022/09/06 00:30:31;;;;;;;17.30;14.32;;;19.80;78.80;;;;;;5075989;28;20044;-11
2022/09/06 00:32:57;;;;;;;14.90;12.63;;;19.80;79.20;;;;;;5075469;28;20499;-11
2022/09/06 00:35:25;;;;;;;17.75;13.70;;;19.80;78.80;;;;;;5075915;28;20031;-12
2022/09/06 00:37:55;;;;;;;15.93;13.18;;;19.80;78.90;;;;;;5075664;28;20032;-11
2022/09/06 00:40:21;;;;;;;18.10;13.60;;;19.80;78.80;;;;;;5075841;28;20021;-12
2022/09/06 00:42:46;;;;;;;16.05;13.07;;;19.70;78.70;;;;;;5075501;28;20081;-12
2022/09/06 00:45:13;;;;;;;15.02;12.90;;;19.70;78.70;;;;;;5075357;28;20029;-12
2022/09/06 00:47:42;;;;;;;15.23;12.15;;;19.70;78.70;;;;;;5075359;28;20024;-11
2022/09/06 00:50:12;;;;;;;13.90;11.75;;;19.70;78.60;;;;;;5075394;28;20380;-12
2022/09/06 00:52:41;;;;;;;18.33;14.85;;;19.70;78.70;;;;;;5075888;28;20035;-11
2022/09/06 00:55:08;;;;;;;17.65;14.90;;;19.70;78.90;;;;;;5074977;28;20028;-12
2022/09/06 00:57:35;;;;;;;15.35;13.18;;;19.70;79.10;;;;;;5075554;28;20028;-11
2022/09/06 01:00:05;;;;;;;13.50;11.23;;;19.60;79.10;;;;;;5075115;28;20044;-12
2022/09/06 01:02:30;;;;;;;14.90;12.55;;;19.60;79.10;;;;;;5075320;28;20024;-12
2022/09/06 01:04:57;;;;;;;16.70;13.32;;;19.60;79.10;;;;;;5075017;28;20024;-11
2022/09/06 01:07:44;;;;;;;14.70;12.52;;;19.60;79.10;;;;;;5075325;28;20035;-11
2022/09/06 01:10:19;;;;;;;14.23;11.52;;;19.50;79.30;;;;;;5075215;28;20059;-12
2022/09/06 01:13:14;;;;;;;15.18;12.88;;;19.50;79.30;;;;;;5074994;28;20404;-11
2022/09/06 01:15:48;;;;;;;19.17;13.40;;;19.50;79.30;;;;;;5074834;28;20085;-12
2022/09/06 01:18:19;;;;;;;20.13;17.02;;;19.50;79.50;;;;;;5074892;28;20036;-12
2022/09/06 01:20:51;;;;;;;19.52;15.93;;;19.50;79.70;;;;;;5074780;28;20041;-13
2022/09/06 01:23:35;;;;;;;17.50;13.93;;;19.50;79.70;;;;;;5074741;28;20032;-12
2022/09/06 01:26:21;;;;;;;16.33;13.75;;;19.40;79.80;;;;;;5074401;28;20035;-12
2022/09/06 01:28:48;;;;;;;16.10;13.82;;;19.40;79.80;;;;;;5074813;28;20024;-13
2022/09/06 01:31:17;;;;;;;21.80;18.50;;;19.40;79.80;;;;;;5074617;28;20430;-12
2022/09/06 01:34:06;;;;;;;16.05;14.15;;;19.40;80.00;;;;;;5073253;28;20025;-12
2022/09/06 01:36:50;;;;;;;26.40;20.80;;;19.40;79.90;;;;;;5074080;28;20044;-12
2022/09/06 01:39:28;;;;;;;21.92;16.85;;;19.30;80.20;;;;;;5074495;28;20032;-11
2022/09/06 01:41:57;;;;;;;20.88;16.65;;;19.20;80.60;;;;;;5074489;28;20526;-12
2022/09/06 01:44:25;;;;;;;22.15;17.83;;;19.20;80.70;;;;;;5075022;28;20028;-12
2022/09/06 01:47:04;;;;;;;19.60;15.65;;;19.20;80.90;;;;;;5074460;28;20028;-12
2022/09/06 01:50:07;;;;;;;20.63;17.27;;;19.10;80.80;;;;;;5074543;28;20043;-12
2022/09/06 01:52:59;;;;;;;18.73;15.68;;;19.10;80.70;;;;;;5074541;28;20044;-12
2022/09/06 01:55:46;;;;;;;17.60;13.57;;;19.10;80.70;;;;;;5074006;28;20465;-11
2022/09/06 01:58:41;;;;;;;16.25;14.18;;;19.10;80.70;;;;;;5074050;28;20511;-11
2022/09/06 02:01:22;;;;;;;18.30;15.18;;;19.10;80.90;;;;;;5073485;28;20098;-12
2022/09/06 02:03:53;;;;;;;22.50;16.85;;;19.10;80.90;;;;;;5073954;28;20113;-11
2022/09/06 02:06:27;;;;;;;16.92;13.13;;;19.00;81.20;;;;;;5073983;28;20142;-12
2022/09/06 02:09:04;;;;;;;19.17;15.95;;;19.00;80.90;;;;;;5073989;28;20111;-11
2022/09/06 02:11:38;;;;;;;23.60;18.13;;;18.90;81.50;;;;;;5073870;28;20025;-11
2022/09/06 02:14:10;;;;;;;19.25;15.25;;;18.90;82.00;;;;;;5074125;28;20046;-12
2022/09/06 02:16:40;;;;;;;19.90;15.27;;;18.90;81.80;;;;;;5073636;28;20025;-11
2022/09/06 02:19:19;;;;;;;17.95;14.60;;;18.90;81.80;;;;;;5073411;28;20082;-12
2022/09/06 02:21:46;;;;;;;17.10;13.35;;;18.80;81.70;;;;;;5073578;28;20078;-13
2022/09/06 02:24:18;;;;;;;17.10;13.27;;;18.80;81.50;;;;;;5073575;28;20558;-11
2022/09/06 02:26:46;;;;;;;15.05;12.77;;;18.80;81.40;;;;;;5073754;28;20025;-12
2022/09/06 02:29:12;;;;;;;16.10;13.38;;;18.80;81.40;;;;;;5073548;28;20032;-11
2022/09/06 02:31:40;;;;;;;18.88;15.10;;;18.80;81.30;;;;;;5073451;28;20103;-12
2022/09/06 02:34:08;;;;;;;16.35;12.82;;;18.80;81.40;;;;;;5073680;28;20074;-12
2022/09/06 02:36:36;;;;;;;19.05;13.93;;;18.80;81.40;;;;;;5072832;28;20032;-11
2022/09/06 02:39:03;;;;;;;20.10;14.45;;;18.80;81.30;;;;;;5073139;28;20024;-11
2022/09/06 02:41:30;;;;;;;21.10;17.08;;;18.80;81.50;;;;;;5072116;28;20020;-12
2022/09/06 02:43:56;;;;;;;22.05;18.38;;;18.80;81.30;;;;;;5073493;28;20384;-11
2022/09/06 02:46:23;;;;;;;20.10;15.77;;;18.80;81.30;;;;;;5073179;28;20492;-12
2022/09/06 02:48:50;;;;;;;17.38;14.52;;;18.80;81.90;;;;;;5073579;28;20442;-12
2022/09/06 02:51:16;;;;;;;23.50;19.42;;;18.80;81.50;;;;;;5073174;28;20512;-12
2022/09/06 02:53:42;;;;;;;27.90;22.35;;;18.80;81.50;;;;;;5074023;28;20049;-12
2022/09/06 02:56:08;;;;;;;17.00;13.32;;;18.80;81.70;;;;;;5073393;28;20119;-12
2022/09/06 02:58:34;;;;;;;16.48;14.32;;;18.70;81.70;;;;;;5073928;28;20389;-12
2022/09/06 03:01:00;;;;;;;17.85;14.98;;;18.70;81.70;;;;;;5072786;28;20048;-11
2022/09/06 03:03:27;;;;;;;17.00;13.75;;;18.70;81.80;;;;;;5073410;28;20029;-11
2022/09/06 03:05:54;;;;;;;17.15;14.38;;;18.70;81.80;;;;;;5073063;28;20017;-11
2022/09/06 03:08:24;;;;;;;18.15;15.13;;;18.70;81.70;;;;;;5073635;28;20020;-11
2022/09/06 03:10:52;;;;;;;18.23;14.18;;;18.60;81.80;;;;;;5073200;28;20110;-11
2022/09/06 03:13:18;;;;;;;18.38;15.63;;;18.60;81.80;;;;;;5073254;28;20031;-11
2022/09/06 03:15:48;;;;;;;27.85;21.95;;;18.60;81.80;;;;;;5073113;28;20100;-11
2022/09/06 03:18:14;;;;;;;17.70;15.32;;;18.60;81.80;;;;;;5071732;28;20032;-11
2022/09/06 03:20:40;;;;;;;16.55;13.93;;;18.60;81.90;;;;;;5071720;28;20025;-11
2022/09/06 03:23:06;;;;;;;14.43;12.45;;;18.60;81.90;;;;;;5072281;28;20025;-11
2022/09/06 03:25:32;;;;;;;15.25;12.98;;;18.60;81.90;;;;;;5073107;28;20017;-11
2022/09/06 03:27:58;;;;;;;19.13;15.23;;;18.60;81.90;;;;;;5073123;28;20423;-11
2022/09/06 03:30:23;;;;;;;17.17;14.13;;;18.60;81.90;;;;;;5073344;28;20107;-11
2022/09/06 03:32:50;;;;;;;18.92;15.75;;;18.60;81.90;;;;;;5072866;28;20055;-10
2022/09/06 03:35:15;;;;;;;16.23;13.52;;;18.60;82.00;;;;;;5073001;28;20036;-12
2022/09/06 03:37:41;;;;;;;17.45;14.80;;;18.60;81.80;;;;;;5071547;28;20495;-11
2022/09/06 03:40:08;;;;;;;21.20;14.98;;;18.60;82.10;;;;;;5072719;28;20096;-11
2022/09/06 03:42:34;;;;;;;18.75;15.25;;;18.50;81.90;;;;;;5072830;28;20031;-11
2022/09/06 03:45:00;;;;;;;15.82;13.20;;;18.50;81.90;;;;;;5072379;28;20021;-11
2022/09/06 03:47:26;;;;;;;17.60;15.38;;;18.50;82.00;;;;;;5073167;28;20036;-11
2022/09/06 03:49:52;;;;;;;15.73;13.75;;;18.50;82.20;;;;;;5074683;28;20029;-11
2022/09/06 03:52:17;;;;;;;18.05;15.35;;;18.50;82.00;;;;;;5076505;28;20111;-11
2022/09/06 03:54:43;;;;;;;18.92;15.80;;;18.40;82.00;;;;;;5076673;28;20024;-12
2022/09/06 03:57:10;;;;;;;17.42;14.85;;;18.40;82.10;;;;;;5076209;28;20024;-11
2022/09/06 03:59:36;;;;;;;17.77;14.75;;;18.40;82.50;;;;;;5076097;28;20063;-11
2022/09/06 04:02:02;;;;;;;19.67;15.02;;;18.40;82.30;;;;;;5076505;28;20480;-12
2022/09/06 04:04:28;;;;;;;19.73;16.83;;;18.40;82.10;;;;;;5076366;28;20036;-11
2022/09/06 04:06:54;;;;;;;20.08;17.40;;;18.40;82.40;;;;;;5076391;28;20035;-12
2022/09/06 04:09:20;;;;;;;19.23;16.17;;;18.40;82.60;;;;;;5076067;28;20440;-12
2022/09/06 04:11:46;;;;;;;19.05;15.55;;;18.30;82.60;;;;;;5076042;28;20111;-12
2022/09/06 04:14:12;;;;;;;17.35;14.00;;;18.30;82.50;;;;;;5076247;28;20116;-12
2022/09/06 04:16:38;;;;;;;19.83;16.90;;;18.30;82.50;;;;;;5075916;28;20032;-12
2022/09/06 04:19:04;;;;;;;18.52;14.93;;;18.20;82.50;;;;;;5075764;28;20029;-11
2022/09/06 04:21:30;;;;;;;19.33;15.25;;;18.20;82.50;;;;;;5076152;28;20025;-11
2022/09/06 04:23:56;;;;;;;15.15;12.45;;;18.20;82.60;;;;;;5076105;28;20027;-11
2022/09/06 04:26:22;;;;;;;17.08;14.30;;;18.20;82.60;;;;;;5075922;28;20043;-12
2022/09/06 04:28:48;;;;;;;16.65;13.02;;;18.20;82.70;;;;;;5075280;28;20021;-12
2022/09/06 04:31:14;;;;;;;17.70;14.63;;;18.20;82.50;;;;;;5075984;28;20357;-12
2022/09/06 04:33:40;;;;;;;22.45;16.50;;;18.20;82.40;;;;;;5075810;28;20028;-12
2022/09/06 04:36:08;;;;;;;19.45;16.35;;;18.20;82.40;;;;;;5075916;28;20122;-12
2022/09/06 04:38:37;;;;;;;23.08;17.38;;;18.20;82.60;;;;;;5075798;28;20162;-12
2022/09/06 04:41:04;;;;;;;35.08;24.65;;;18.20;82.70;;;;;;5075752;28;20025;-11
2022/09/06 04:43:31;;;;;;;33.97;27.35;;;18.20;82.80;;;;;;5075516;28;20032;-11
2022/09/06 04:46:18;;;;;;;20.25;17.48;;;18.20;82.90;;;;;;5075653;28;20028;-12
2022/09/06 04:48:43;;;;;;;20.45;17.63;;;18.10;83.10;;;;;;5075491;28;20032;-12
2022/09/06 04:51:09;;;;;;;18.75;16.02;;;18.10;83.40;;;;;;5075752;28;20029;-12
2022/09/06 04:53:35;;;;;;;23.08;18.25;;;18.00;83.30;;;;;;5075636;28;20035;-10
2022/09/06 04:56:01;;;;;;;21.40;17.40;;;18.00;83.40;;;;;;5075555;28;20468;-11
2022/09/06 04:58:27;;;;;;;19.20;16.15;;;18.00;83.20;;;;;;5075493;28;20551;-10
2022/09/06 05:00:53;;;;;;;22.75;17.85;;;18.00;83.20;;;;;;5074211;28;20132;-12
2022/09/06 05:03:19;;;;;;;18.17;15.32;;;18.10;83.20;;;;;;5075150;28;20094;-12
2022/09/06 05:05:45;;;;;;;19.05;16.33;;;18.10;83.20;;;;;;5075450;28;20063;-12
2022/09/06 05:08:11;;;;;;;36.42;24.50;;;18.10;83.20;;;;;;5075361;28;20392;-11
2022/09/06 05:10:37;;;;;;;29.02;21.25;;;18.20;83.10;;;;;;5075363;28;20025;-12
2022/09/06 05:13:03;;;;;;;24.88;19.30;;;18.20;83.10;;;;;;5074750;28;20028;-11
2022/09/06 05:15:29;;;;;;;23.85;19.77;;;18.20;83.00;;;;;;5075121;28;20031;-12
2022/09/06 05:18:03;;;;;;;24.30;19.05;;;18.30;83.00;;;;;;5075220;28;20040;-11
2022/09/06 05:20:29;;;;;;;27.38;22.15;;;18.30;83.00;;;;;;5075159;28;20059;-12
2022/09/06 05:22:55;;;;;;;21.60;17.77;;;18.30;83.10;;;;;;5074582;28;20028;-12
2022/09/06 05:25:22;;;;;;;30.67;23.60;;;18.40;83.20;;;;;;5075472;28;20031;-11
2022/09/06 05:27:48;;;;;;;29.45;22.58;;;18.40;83.50;;;;;;5074502;28;20060;-12
2022/09/06 05:30:16;;;;;;;22.48;17.98;;;18.50;83.30;;;;;;5074860;28;20461;-12
2022/09/06 05:32:43;;;;;;;22.08;17.13;;;18.50;83.10;;;;;;5074590;28;20103;-11
2022/09/06 05:35:09;;;;;;;32.17;20.35;;;18.70;83.10;;;;;;5074189;28;20031;-12
2022/09/06 05:37:35;;;;;;;21.33;18.25;;;18.70;82.90;;;;;;5074421;28;20043;-12
2022/09/06 05:40:01;;;;;;;28.08;20.98;;;18.80;82.70;;;;;;5074654;28;20021;-12
2022/09/06 05:42:27;;;;;;;27.08;21.67;;;18.90;82.70;;;;;;5073699;28;20017;-11
2022/09/06 05:44:53;;;;;;;26.52;21.15;;;19.00;82.70;;;;;;5074432;28;20020;-11
2022/09/06 05:47:19;;;;;;;25.35;20.67;;;19.10;82.80;;;;;;5074796;28;20439;-11
2022/09/06 05:49:45;;;;;;;35.83;23.42;;;19.20;82.50;;;;;;5073449;28;20082;-11
2022/09/06 05:52:11;;;;;;;23.17;17.92;;;19.30;82.40;;;;;;5074422;28;20542;-11
2022/09/06 05:54:37;;;;;;;25.13;19.33;;;19.40;82.20;;;;;;5074238;28;20020;-12
2022/09/06 05:57:03;;;;;;;31.63;25.15;;;19.50;82.10;;;;;;5074193;28;20036;-12
2022/09/06 05:59:29;;;;;;;28.80;22.02;;;19.60;82.00;;;;;;5073751;28;20036;-12
2022/09/06 06:01:55;;;;;;;22.27;18.08;;;19.70;81.80;;;;;;5073968;28;20036;-12
2022/09/06 06:04:21;;;;;;;28.85;23.20;;;19.90;81.60;;;;;;5074264;28;20036;-11
2022/09/06 06:06:50;;;;;;;22.52;17.92;;;20.00;81.50;;;;;;5073967;28;20029;-11
2022/09/06 06:09:17;;;;;;;28.63;24.15;;;20.10;81.40;;;;;;5074118;28;20052;-13
2022/09/06 06:11:43;;;;;;;32.22;25.30;;;20.20;81.10;;;;;;5072968;28;20036;-11
2022/09/06 06:14:09;;;;;;;29.85;25.33;;;20.40;80.90;;;;;;5072521;28;20082;-11
2022/09/06 06:16:35;;;;;;;28.98;24.17;;;20.50;80.80;;;;;;5073621;28;20029;-12
2022/09/06 06:19:02;;;;;;;46.00;34.67;;;20.60;80.60;;;;;;5073561;28;20013;-12
2022/09/06 06:21:32;;;;;;;27.70;23.35;;;20.70;80.80;;;;;;5073928;28;20035;-12
2022/09/06 06:24:00;;;;;;;25.63;20.77;;;20.80;80.70;;;;;;5074093;28;20021;-12
2022/09/06 06:26:27;;;;;;;33.92;25.85;;;20.90;80.60;;;;;;5073659;28;20420;-12
2022/09/06 06:28:53;;;;;;;22.15;18.70;;;21.10;80.40;;;;;;5073597;28;20104;-12
2022/09/06 06:31:22;;;;;;;29.27;20.73;;;21.20;80.00;;;;;;5072183;28;20115;-11
2022/09/06 06:33:49;;;;;;;23.02;18.45;;;21.40;80.10;;;;;;5073516;28;20070;-12
2022/09/06 06:36:14;;;;;;;27.88;20.35;;;21.50;79.80;;;;;;5073309;28;20024;-11
2022/09/06 06:38:44;;;;;;;18.88;16.30;;;21.70;79.40;;;;;;5073546;28;20028;-13
2022/09/06 06:41:13;;;;;;;20.42;15.98;;;21.90;79.00;;;;;;5073146;28;20017;-13
2022/09/06 06:43:39;;;;;;;18.00;15.13;;;22.00;79.00;;;;;;5072045;28;20033;-12
2022/09/06 06:46:07;;;;;;;17.73;15.80;;;22.20;78.90;;;;;;5073232;28;20052;-12
2022/09/06 06:48:34;;;;;;;18.17;15.02;;;22.50;78.50;;;;;;5073267;28;20514;-11
2022/09/06 06:51:00;;;;;;;20.10;17.63;;;22.70;78.00;;;;;;5073200;28;20476;-12
2022/09/06 06:53:26;;;;;;;18.05;14.98;;;22.90;77.10;;;;;;5073690;28;20036;-11
2022/09/06 06:55:52;;;;;;;19.27;15.90;;;23.10;76.30;;;;;;5071966;28;20039;-12
2022/09/06 06:58:18;;;;;;;16.27;14.50;;;23.20;75.80;;;;;;5073177;28;20020;-13
2022/09/06 07:00:44;;;;;;;20.65;18.10;;;23.40;75.60;;;;;;5073000;28;20070;-11
2022/09/06 07:03:11;;;;;;;18.65;16.65;;;23.60;74.40;;;;;;5073209;28;20341;-11
2022/09/06 07:05:39;;;;;;;18.05;16.15;;;23.80;74.30;;;;;;5071788;28;20029;-11
2022/09/06 07:08:06;;;;;;;17.13;15.25;;;23.90;73.50;;;;;;5073076;28;20531;-11
2022/09/06 07:10:33;;;;;;;16.98;14.85;;;24.10;72.80;;;;;;5073052;28;20492;-11
2022/09/06 07:12:59;;;;;;;16.10;14.15;;;24.30;72.70;;;;;;5072800;28;20075;-10
2022/09/06 07:15:26;;;;;;;18.33;13.70;;;24.40;72.00;;;;;;5073136;28;20031;-12
2022/09/06 07:17:54;;;;;;;17.90;14.25;;;24.60;71.70;;;;;;5073283;28;20489;-12
2022/09/06 07:20:20;;;;;;;15.40;12.18;;;24.80;70.70;;;;;;5073109;28;20050;-11
2022/09/06 07:22:46;;;;;;;16.73;13.80;;;25.00;69.90;;;;;;5073566;28;20036;-11
2022/09/06 07:25:14;;;;;;;14.35;12.02;;;25.20;69.40;;;;;;5077021;28;20400;-11
2022/09/06 07:27:42;;;;;;;19.60;14.27;;;25.40;69.00;;;;;;5076972;28;20407;-11
2022/09/06 07:30:09;;;;;;;18.83;14.48;;;25.50;66.60;;;;;;5077861;28;20024;-11
2022/09/06 07:32:35;;;;;;;15.70;12.43;;;25.70;66.40;;;;;;5076848;28;20107;-11
2022/09/06 07:35:01;;;;;;;18.73;14.73;;;25.90;66.50;;;;;;5076842;28;20116;-10
2022/09/06 07:37:27;;;;;;;16.58;12.25;;;26.00;65.40;;;;;;5077434;28;20488;-11
2022/09/06 07:39:52;;;;;;;11.90;10.35;;;26.20;65.10;;;;;;5076703;28;20030;-10
2022/09/06 07:42:18;;;;;;;17.33;13.73;;;26.40;64.80;;;;;;5076956;28;20025;-11
2022/09/06 07:44:44;;;;;;;13.75;9.68;;;26.40;63.70;;;;;;5076904;28;20071;-11
2022/09/06 07:47:11;;;;;;;13.35;9.95;;;26.60;64.20;;;;;;5076641;28;20028;-11
2022/09/06 07:49:37;;;;;;;15.02;11.15;;;26.90;63.40;;;;;;5076798;28;20024;-11
2022/09/06 07:52:03;;;;;;;13.30;9.18;;;27.10;62.50;;;;;;5076379;28;20033;-11
2022/09/06 07:54:28;;;;;;;12.88;10.20;;;27.30;62.10;;;;;;5076349;28;20036;-11
2022/09/06 07:56:54;;;;;;;11.95;8.02;;;27.60;61.40;;;;;;5076200;28;20025;-11
2022/09/06 07:59:20;;;;;;;11.00;8.80;;;27.80;61.60;;;;;;5076294;28;20020;-11
2022/09/06 08:01:47;;;;;;;9.63;8.30;;;28.00;61.20;;;;;;5076806;28;20378;-11
2022/09/06 08:04:13;;;;;;;10.90;7.57;;;28.40;60.30;;;;;;5076259;28;20423;-11
2022/09/06 08:06:49;;;;;;;9.73;8.60;;;28.60;59.40;;;;;;5076193;28;20028;-10
2022/09/06 08:09:15;;;;;;;11.95;9.00;;;28.90;58.10;;;;;;5076099;28;20384;-11
2022/09/06 08:11:41;;;;;;;9.68;8.00;;;29.20;56.80;;;;;;5076283;28;20029;-11
2022/09/06 08:14:09;;;;;;;10.55;8.20;;;29.30;56.80;;;;;;5076369;28;20043;-11
2022/09/06 08:16:36;;;;;;;13.68;9.25;;;29.60;56.50;;;;;;5075901;28;20039;-10
2022/09/06 08:19:07;;;;;;;11.65;8.38;;;29.90;55.80;;;;;;5075840;28;20032;-11
2022/09/06 08:21:33;;;;;;;11.15;7.78;;;30.20;55.30;;;;;;5076343;28;20025;-11
2022/09/06 08:24:02;;;;;;;10.52;7.80;;;30.40;55.00;;;;;;5075889;28;20025;-11
2022/09/06 08:26:31;;;;;;;10.35;8.65;;;30.60;54.30;;;;;;5076160;28;20067;-11
2022/09/06 08:29:04;;;;;;;10.63;7.82;;;30.80;53.60;;;;;;5074404;28;20042;-11
2022/09/06 08:31:31;;;;;;;8.70;6.53;;;30.70;52.90;;;;;;5075977;28;20074;-11
2022/09/06 08:33:59;;;;;;;11.77;7.95;;;30.70;52.90;;;;;;5076009;28;20032;-11
2022/09/06 08:36:28;;;;;;;9.70;6.80;;;30.90;53.00;;;;;;5074878;28;20380;-11
2022/09/06 08:38:55;;;;;;;7.82;6.63;;;30.90;53.00;;;;;;5075604;28;20013;-11
2022/09/06 08:41:24;;;;;;;9.02;6.68;;;31.00;52.80;;;;;;5074434;28;20472;-11
2022/09/06 08:44:05;;;;;;;9.23;5.90;;;31.20;51.90;;;;;;5075550;28;20040;-11
2022/09/06 08:46:36;;;;;;;7.40;5.93;;;31.40;50.30;;;;;;5075842;28;20056;-10
2022/09/06 08:49:04;;;;;;;10.20;7.45;;;31.70;50.50;;;;;;5075615;28;20103;-11
2022/09/06 08:52:01;;;;;;;9.90;6.18;;;31.90;49.80;;;;;;5075724;28;20089;-10
2022/09/06 08:54:49;;;;;;;8.65;6.70;;;32.20;49.20;;;;;;5075682;28;20473;-11
2022/09/06 08:57:39;;;;;;;9.77;7.43;;;32.40;47.90;;;;;;5075721;28;20025;-12
2022/09/06 09:00:10;;;;;;;11.98;8.35;;;32.50;48.50;;;;;;5075022;28;20049;-11
2022/09/06 09:02:43;;;;;;;8.57;6.68;;;32.60;48.20;;;;;;5075624;28;20032;-10
2022/09/06 09:05:21;;;;;;;10.38;6.25;;;32.70;48.00;;;;;;5075598;28;20020;-11
2022/09/06 09:08:04;;;;;;;9.80;6.57;;;32.80;48.10;;;;;;5075427;28;20029;-11
2022/09/06 09:10:41;;;;;;;10.60;7.28;;;32.90;47.10;;;;;;5075741;28;20032;-11
2022/09/06 09:13:16;;;;;;;10.30;7.05;;;33.20;45.40;;;;;;5075047;28;20496;-11
2022/09/06 09:15:42;;;;;;;10.27;7.60;;;33.40;46.20;;;;;;5075280;28;20032;-11
2022/09/06 09:18:08;;;;;;;9.48;7.93;;;33.50;46.20;;;;;;5075088;28;20035;-11
2022/09/06 09:20:37;;;;;;;11.20;6.13;;;33.30;46.30;;;;;;5075035;28;20374;-11
2022/09/06 09:23:03;;;;;;;9.30;6.10;;;33.20;46.70;;;;;;5074644;28;20032;-11
2022/09/06 09:25:33;;;;;;;8.35;5.20;;;33.10;46.80;;;;;;5075091;28;20027;-10
2022/09/06 09:27:59;;;;;;;10.45;5.50;;;33.40;46.90;;;;;;5130973;22;20083;-14
2022/09/06 09:30:43;;;;;;;7.63;5.82;;;33.60;46.80;;;;;;5054877;28;20033;-15
2022/09/06 09:33:32;;;;;;;6.15;4.85;;;33.90;45.20;;;;;;5054747;28;20028;-15
2022/09/06 09:36:06;;;;;;;10.20;5.50;;;34.00;45.90;;;;;;5054649;28;20031;-14
2022/09/06 09:38:41;;;;;;;6.15;4.43;;;34.20;44.20;;;;;;5054722;28;20036;-14
2022/09/06 09:41:07;;;;;;;10.35;5.10;;;34.30;44.30;;;;;;5054218;28;20025;-14
2022/09/06 09:43:41;;;;;;;10.25;4.82;;;34.40;43.40;;;;;;5054460;28;20025;-14
2022/09/06 09:46:38;;;;;;;5.75;4.65;;;34.40;43.90;;;;;;5054470;28;20029;-14
2022/09/06 09:49:12;;;;;;;5.90;4.10;;;34.60;43.30;;;;;;5054141;28;20078;-14
2022/09/06 09:51:45;;;;;;;10.13;5.50;;;34.80;43.70;;;;;;5055162;28;20013;-14
2022/09/06 09:54:14;;;;;;;7.18;5.50;;;35.10;42.20;;;;;;5054269;28;20074;-14
2022/09/06 09:56:45;;;;;;;7.05;5.72;;;35.30;41.40;;;;;;5054053;28;20078;-14
2022/09/06 09:59:20;;;;;;;6.70;4.70;;;35.50;40.80;;;;;;5054284;28;20025;-14
2022/09/06 10:01:46;;;;;;;8.73;6.07;;;35.50;41.70;;;;;;5054368;28;20093;-14
2022/09/06 10:04:43;;;;;;;6.30;5.45;;;35.50;41.50;;;;;;5054314;28;20024;-14
2022/09/06 10:07:14;;;;;;;9.32;5.10;;;35.40;41.40;;;;;;5049775;28;20037;-14
2022/09/06 10:09:43;;;;;;;6.60;4.75;;;35.30;41.90;;;;;;5054185;28;20154;-15
2022/09/06 10:12:16;;;;;;;6.55;4.35;;;35.40;41.50;;;;;;5053809;28;20029;-14
2022/09/06 10:14:48;;;;;;;7.20;4.68;;;35.50;42.00;;;;;;5053812;28;20017;-14
2022/09/06 10:17:25;;;;;;;8.75;5.15;;;35.90;40.90;;;;;;5053780;28;20033;-14
2022/09/06 10:19:52;;;;;;;7.30;4.68;;;36.00;40.90;;;;;;5054159;28;20021;-14
2022/09/06 10:22:38;;;;;;;10.48;4.93;;;36.20;40.80;;;;;;5053963;28;20032;-14
2022/09/06 10:25:37;;;;;;;10.63;6.00;;;36.20;40.60;;;;;;5053718;28;20102;-14
2022/09/06 10:28:21;;;;;;;7.03;4.30;;;35.90;40.80;;;;;;5053513;28;20076;-14
2022/09/06 10:31:20;;;;;;;9.55;5.43;;;35.80;41.80;;;;;;5053610;28;20060;-16
2022/09/06 10:33:53;;;;;;;5.15;4.20;;;35.90;41.40;;;;;;5054017;28;20490;-14
2022/09/06 10:36:25;;;;;;;5.88;4.60;;;35.80;41.50;;;;;;5053667;28;20021;-14
2022/09/06 10:39:02;;;;;;;12.10;4.60;;;36.00;40.10;;;;;;5053564;28;20036;-14
2022/09/06 10:41:34;;;;;;;5.60;4.03;;;36.30;39.30;;;;;;5053675;28;20055;-15
2022/09/06 10:44:19;;;;;;;4.40;3.60;;;36.40;39.80;;;;;;5053354;28;20033;-16
2022/09/06 10:46:48;;;;;;;7.53;4.47;;;36.60;39.60;;;;;;5053584;28;20029;-15
2022/09/06 10:49:18;;;;;;;7.60;5.05;;;36.90;38.60;;;;;;5053536;28;20384;-15
2022/09/06 10:52:00;;;;;;;5.15;4.55;;;37.40;36.90;;;;;;5053582;28;20069;-15
2022/09/06 10:54:29;;;;;;;6.07;4.10;;;37.50;36.30;;;;;;5053469;28;20511;-14
2022/09/06 10:57:00;;;;;;;8.05;4.88;;;37.70;36.30;;;;;;5052998;28;20256;-15
2022/09/06 10:59:34;;;;;;;11.65;5.70;;;37.80;36.30;;;;;;5053110;28;20040;-14
2022/09/06 11:02:11;;;;;;;7.28;4.90;;;37.90;36.50;;;;;;5053385;28;20025;-14
2022/09/06 11:04:39;;;;;;;6.38;4.35;;;37.50;36.80;;;;;;5053250;28;20033;-15
2022/09/06 11:07:30;;;;;;;5.32;3.92;;;37.00;37.50;;;;;;5052881;28;20427;-14
2022/09/06 11:10:02;;;;;;;5.95;4.53;;;36.70;38.30;;;;;;5053389;28;20057;-14
2022/09/06 11:12:30;;;;;;;7.22;4.93;;;36.70;38.60;;;;;;5053081;28;20481;-13
2022/09/06 11:14:56;;;;;;;10.73;4.80;;;36.90;38.70;;;;;;5052570;28;20067;-14
2022/09/06 11:17:40;;;;;;;7.40;4.40;;;37.30;38.00;;;;;;5053211;28;20057;-14
2022/09/06 11:20:16;;;;;;;7.63;5.18;;;37.60;37.40;;;;;;5053148;28;20479;-14
2022/09/06 11:23:09;;;;;;;5.43;4.28;;;37.60;36.00;;;;;;5053139;28;20498;-14
2022/09/06 11:26:09;;;;;;;5.15;4.18;;;37.30;36.20;;;;;;5052929;28;20029;-14
2022/09/06 11:28:51;;;;;;;7.32;4.07;;;37.20;37.40;;;;;;5052880;28;20040;-13
2022/09/06 11:31:48;;;;;;;6.50;4.22;;;37.40;37.40;;;;;;5053055;28;20468;-14
2022/09/06 11:34:22;;;;;;;8.52;4.45;;;37.50;37.30;;;;;;5052797;28;20025;-14
2022/09/06 11:36:58;;;;;;;6.82;4.50;;;37.40;36.10;;;;;;5034630;28;20087;-14
2022/09/06 11:39:30;;;;;;;5.57;4.47;;;37.20;37.50;;;;;;5053087;28;20078;-14
2022/09/06 11:41:56;;;;;;;9.32;3.95;;;37.10;37.90;;;;;;5052586;28;20029;-13
2022/09/06 11:44:52;;;;;;;6.22;4.25;;;37.10;37.30;;;;;;5053210;28;20023;-14
2022/09/06 11:47:39;;;;;;;5.00;4.00;;;37.40;36.60;;;;;;5052652;28;20047;-14
2022/09/06 11:50:20;;;;;;;4.78;3.92;;;37.70;36.10;;;;;;5052965;28;20025;-14
2022/09/06 11:52:58;;;;;;;7.78;4.47;;;38.20;34.60;;;;;;5052551;28;20488;-14
2022/09/06 11:55:47;;;;;;;7.13;3.60;;;38.20;34.70;;;;;;5052543;28;20069;-14
2022/09/06 11:58:16;;;;;;;6.68;3.85;;;37.90;35.60;;;;;;5052466;28;20025;-14
2022/09/06 12:00:44;;;;;;;4.72;3.28;;;38.00;36.00;;;;;;5052541;28;20033;-13
2022/09/06 12:03:42;;;;;;;6.20;3.85;;;38.40;35.40;;;;;;5052246;28;20036;-14
2022/09/06 12:06:14;;;;;;;9.68;3.72;;;38.70;35.20;;;;;;5052379;28;20032;-14
2022/09/06 12:08:42;;;;;;;5.43;3.75;;;38.90;35.00;;;;;;5052493;28;20029;-14
2022/09/06 12:11:28;;;;;;;6.10;3.72;;;39.20;33.90;;;;;;5054575;28;20025;-13
2022/09/06 12:13:58;;;;;;;7.72;4.00;;;39.30;34.20;;;;;;5056308;28;20029;-14
2022/09/06 12:17:05;;;;;;;5.65;3.78;;;39.50;33.40;;;;;;5056304;28;20068;-14
2022/09/06 12:19:54;;;;;;;4.57;3.67;;;39.30;32.70;;;;;;5039287;28;20036;-14
2022/09/06 12:22:27;;;;;;;7.80;4.30;;;38.70;33.80;;;;;;5055962;28;20055;-14
2022/09/06 12:24:58;;;;;;;7.10;4.20;;;38.30;34.50;;;;;;5056262;28;20393;-14
2022/09/06 12:27:28;;;;;;;5.95;3.92;;;38.10;34.70;;;;;;5055536;28;20132;-14
2022/09/06 12:30:00;;;;;;;5.63;4.07;;;38.30;34.90;;;;;;5056109;28;20078;-13
2022/09/06 12:32:32;;;;;;;;;;;38.50;34.90;;;;;;5056172;28;20028;-14
2022/09/06 12:34:59;;;;;;;6.90;3.90;;;38.50;34.50;;;;;;5055542;28;19913;-14
2022/09/06 12:37:48;;;;;;;4.28;3.25;;;38.30;34.80;;;;;;5055913;28;20062;-14
2022/09/06 12:40:17;;;;;;;6.60;3.30;;;38.00;34.90;;;;;;5055684;28;20107;-14
2022/09/06 12:42:45;;;;;;;6.68;3.92;;;38.10;35.30;;;;;;5055590;28;20036;-14
2022/09/06 12:45:12;;;;;;;5.68;4.40;;;38.20;34.80;;;;;;5055326;28;20029;-14
2022/09/06 12:47:39;;;;;;;6.22;3.50;;;38.10;34.80;;;;;;5055719;28;20028;-14
2022/09/06 12:50:24;;;;;;;9.38;3.80;;;37.90;35.10;;;;;;5037578;28;20494;-14
2022/09/06 12:52:53;;;;;;;6.32;3.95;;;37.90;34.50;;;;;;5055364;28;20032;-14